Time;durP1;ratioP1;P1;durP2;ratioP2;P2;SDS_P1;SDS_P2;PMS_P1;PMS_P2;Temp;Humidity;BMP_temperature;BMP_pressure;BME280_temperature;BME280_humidity;BME280_pressure;Samples;Min_cycle;Max_cycle;Signal;HPM_P1;HPM_P2
2022/10/31 00:01:17;;;;;;;;;;;;;;;21.07;100.00;99410.50;5039448;28;19920;-42
2022/10/31 00:03:42;;;;;;;;;;;;;;;21.17;100.00;99405.47;5041550;28;19932;-42
2022/10/31 00:06:07;;;;;;;;;;;;;;;21.24;100.00;99412.78;5042868;28;19924;-42
2022/10/31 00:08:33;;;;;;;;;;;;;;;21.05;100.00;99415.00;5039480;28;19928;-42
2022/10/31 00:10:58;;;;;;;;;;;;;;;21.10;100.00;99418.16;5040791;28;19917;-42
2022/10/31 00:13:23;;;;;;;;;;;;;;;21.28;100.00;99406.41;5040738;28;20342;-42
2022/10/31 00:15:48;;;;;;;;;;;;;;;21.16;100.00;99399.38;5040451;28;20011;-42
2022/10/31 00:18:14;;;;;;;;;;;;;;;21.12;100.00;99408.41;5040306;28;19956;-42
2022/10/31 00:20:39;;;;;;;;;;;;;;;21.09;100.00;99409.44;5041298;28;19966;-42
2022/10/31 00:23:05;;;;;;;;;;;;;;;21.19;100.00;99404.44;5039702;28;19920;-42
2022/10/31 00:25:32;;;;;;;;;;;;;;;21.25;100.00;99398.72;5042239;28;20039;-42
2022/10/31 00:27:57;;;;;;;;;;;;;;;21.18;100.00;99407.97;5039674;28;19926;-43
2022/10/31 00:30:23;;;;;;;;;;;;;;;21.13;100.00;99415.31;5038514;28;20156;-42
2022/10/31 00:32:48;;;;;;;;;;;;;;;21.11;100.00;99411.97;5040061;28;20004;-42
2022/10/31 00:35:13;;;;;;;;;;;;;;;21.16;100.00;99420.34;5041795;28;19976;-43
2022/10/31 00:37:38;;;;;;;;;;;;;;;21.10;100.00;99420.78;5040403;28;19967;-42
2022/10/31 00:40:04;;;;;;;;;;;;;;;21.17;100.00;99424.66;5039949;28;19924;-42
2022/10/31 00:42:29;;;;;;;;;;;;;;;21.06;100.00;99421.94;5041172;28;19920;-43
2022/10/31 00:44:54;;;;;;;;;;;;;;;21.19;100.00;99429.75;5040902;28;19931;-43
2022/10/31 00:47:20;;;;;;;;;;;;;;;21.13;100.00;99417.94;5039178;28;19929;-43
2022/10/31 00:49:45;;;;;;;;;;;;;;;21.23;100.00;99429.47;5039918;28;19928;-43
2022/10/31 00:52:10;;;;;;;;;;;;;;;21.34;100.00;99422.63;5039943;28;19920;-43
2022/10/31 00:54:35;;;;;;;;;;;;;;;21.27;100.00;99416.97;5041799;28;19935;-43
2022/10/31 00:57:00;;;;;;;;;;;;;;;21.36;100.00;99425.97;5041026;28;19921;-43
2022/10/31 00:59:26;;;;;;;;;;;;;;;21.20;100.00;99420.97;5040211;28;19927;-42
2022/10/31 01:01:51;;;;;;;;;;;;;;;21.16;100.00;99430.81;5038780;28;20015;-43
2022/10/31 01:04:16;;;;;;;;;;;;;;;21.25;100.00;99435.41;5040595;28;20039;-43
2022/10/31 01:06:41;;;;;;;;;;;;;;;21.18;100.00;99434.16;5039795;28;20019;-43
2022/10/31 01:09:06;;;;;;;;;;;;;;;21.12;100.00;99432.00;5040650;28;20011;-43
2022/10/31 01:11:32;;;;;;;;;;;;;;;21.22;100.00;99427.78;5038095;28;19996;-43
2022/10/31 01:13:57;;;;;;;;;;;;;;;21.25;100.00;99432.78;5039468;28;19921;-43
2022/10/31 01:16:23;;;;;;;;;;;;;;;21.22;100.00;99435.63;5039565;28;20054;-43
2022/10/31 01:18:49;;;;;;;;;;;;;;;21.33;100.00;99428.81;5039427;28;19975;-42
2022/10/31 01:21:15;;;;;;;;;;;;;;;21.29;100.00;99442.13;5040348;28;20653;-42
2022/10/31 01:23:41;;;;;;;;;;;;;;;21.23;100.00;99434.72;5040117;28;19921;-42
2022/10/31 01:26:06;;;;;;;;;;;;;;;21.26;100.00;99431.03;5042084;28;19928;-43
2022/10/31 01:28:31;;;;;;;;;;;;;;;21.30;100.00;99424.59;5040451;28;19944;-43
2022/10/31 01:31:00;;;;;;;;;;;;;;;21.33;100.00;99426.22;5040234;28;20285;-43
2022/10/31 01:33:25;;;;;;;;;;;;;;;21.18;100.00;99426.31;5038892;28;19928;-43
2022/10/31 01:35:50;;;;;;;;;;;;;;;21.17;100.00;99423.81;5039989;28;19917;-43
2022/10/31 01:38:15;;;;;;;;;;;;;;;21.17;100.00;99415.97;5040742;28;19973;-43
2022/10/31 01:40:40;;;;;;;;;;;;;;;21.14;100.00;99416.97;5039200;28;19920;-43
2022/10/31 01:43:08;;;;;;;;;;;;;;;21.23;100.00;99412.88;5038883;28;20019;-42
2022/10/31 01:45:33;;;;;;;;;;;;;;;21.12;100.00;99413.66;5038945;28;20708;-43
2022/10/31 01:47:58;;;;;;;;;;;;;;;21.03;100.00;99414.28;5037670;28;19923;-43
2022/10/31 01:50:27;;;;;;;;;;;;;;;21.26;100.00;99404.84;5036861;28;19924;-44
2022/10/31 01:52:52;;;;;;;;;;;;;;;21.30;100.00;99401.03;5039444;28;19977;-44
2022/10/31 01:55:18;;;;;;;;;;;;;;;21.14;100.00;99406.50;5040662;28;19932;-43
2022/10/31 01:57:44;;;;;;;;;;;;;;;21.30;100.00;99401.91;5039605;28;19920;-43
2022/10/31 02:00:10;;;;;;;;;;;;;;;21.10;100.00;99405.06;5037854;28;20063;-43
2022/10/31 02:02:35;;;;;;;;;;;;;;;21.19;100.00;99400.94;5038399;28;20011;-43
2022/10/31 02:05:01;;;;;;;;;;;;;;;21.16;100.00;99404.63;5040104;28;19998;-43
2022/10/31 02:07:28;;;;;;;;;;;;;;;21.19;100.00;99403.56;5038219;28;19925;-43
2022/10/31 02:09:53;;;;;;;;;;;;;;;21.20;100.00;99410.50;5036855;28;20015;-43
2022/10/31 02:12:18;;;;;;;;;;;;;;;21.17;100.00;99415.97;5039059;28;21006;-43
2022/10/31 02:14:43;;;;;;;;;;;;;;;21.22;100.00;99414.69;5038019;28;21063;-43
2022/10/31 02:17:08;;;;;;;;;;;;;;;21.25;100.00;99408.38;5038100;28;19967;-43
2022/10/31 02:19:35;;;;;;;;;;;;;;;21.22;100.00;99414.69;5034977;28;19960;-42
2022/10/31 02:22:27;;;;;;;;;;;;;;;21.11;100.00;99417.19;5037416;28;19931;-43
2022/10/31 02:24:56;;;;;;;;;;;;;;;20.93;100.00;99428.94;5030661;28;20340;-43
2022/10/31 02:27:21;;;;;;;;;;;;;;;20.82;100.00;99448.84;5037570;28;19928;-42
2022/10/31 02:29:47;;;;;;;;;;;;;;;20.51;100.00;99450.00;5037757;28;20332;-43
2022/10/31 02:32:18;;;;;;;;;;;;;;;20.89;100.00;99450.09;5037760;28;20015;-43
2022/10/31 02:34:49;;;;;;;;;;;;;;;20.86;100.00;99444.22;5035546;28;19921;-43
2022/10/31 02:37:16;;;;;;;;;;;;;;;20.95;100.00;99448.00;5037206;28;20388;-43
2022/10/31 02:39:48;;;;;;;;;;;;;;;20.93;100.00;99444.66;5036649;28;19927;-43
2022/10/31 02:42:15;;;;;;;;;;;;;;;20.80;100.00;99434.16;5035982;28;19928;-43
2022/10/31 02:44:45;;;;;;;;;;;;;;;20.93;100.00;99429.75;5035854;28;20684;-43
2022/10/31 02:47:10;;;;;;;;;;;;;;;20.85;100.00;99421.63;5033665;28;19964;-43
2022/10/31 02:49:38;;;;;;;;;;;;;;;20.76;100.00;99423.06;5038494;28;19955;-43
2022/10/31 02:52:13;;;;;;;;;;;;;;;20.51;100.00;99417.78;5038108;28;19916;-43
2022/10/31 02:54:38;;;;;;;;;;;;;;;20.20;100.00;99423.22;5038083;28;20386;-43
2022/10/31 02:57:04;;;;;;;;;;;;;;;20.21;100.00;99426.69;5038495;28;19925;-43
2022/10/31 02:59:30;;;;;;;;;;;;;;;20.81;100.00;99418.34;5036618;28;19943;-43
2022/10/31 03:02:14;;;;;;;;;;;;;;;20.51;100.00;99417.78;5038182;28;19921;-43
2022/10/31 03:04:49;;;;;;;;;;;;;;;20.32;100.00;99416.38;5038688;28;19921;-43
2022/10/31 03:07:23;;;;;;;;;;;;;;;19.67;100.00;99421.41;5036922;28;19952;-43
2022/10/31 03:09:52;;;;;;;;;;;;;;;19.40;100.00;99422.19;5038287;28;19924;-43
2022/10/31 03:12:17;;;;;;;;;;;;;;;19.49;100.00;99419.00;5035827;28;20442;-43
2022/10/31 03:14:45;;;;;;;;;;;;;;;19.85;100.00;99415.03;5036691;28;19956;-43
2022/10/31 03:17:20;;;;;;;;;;;;;;;19.46;100.00;99418.38;5036382;28;19925;-43
2022/10/31 03:19:46;;;;;;;;;;;;;;;19.53;100.00;99420.50;5036947;28;19974;-43
2022/10/31 03:22:19;;;;;;;;;;;;;;;19.62;100.00;99419.91;5037454;28;19924;-43
2022/10/31 03:24:45;;;;;;;;;;;;;;;19.67;100.00;99414.41;5035137;28;19924;-43
2022/10/31 03:27:10;;;;;;;;;;;;;;;19.53;100.00;99423.09;5036569;28;19932;-43
2022/10/31 03:29:36;;;;;;;;;;;;;;;19.24;100.00;99414.44;5035149;28;19986;-43
2022/10/31 03:32:02;;;;;;;;;;;;;;;18.91;100.00;99428.63;5039280;28;20146;-43
2022/10/31 03:34:27;;;;;;;;;;;;;;;18.81;100.00;99432.69;5036230;28;19921;-43
2022/10/31 03:36:53;;;;;;;;;;;;;;;18.18;100.00;99444.13;5036335;28;19970;-43
2022/10/31 03:39:19;;;;;;;;;;;;;;;18.33;100.00;99443.22;5034519;28;19920;-43
2022/10/31 03:41:45;;;;;;;;;;;;;;;18.68;100.00;99431.69;5036880;28;19925;-43
2022/10/31 03:44:12;;;;;;;;;;;;;;;18.81;100.00;99443.13;5035146;28;19929;-43
2022/10/31 03:46:38;;;;;;;;;;;;;;;18.94;100.00;99438.03;5035955;28;19983;-43
2022/10/31 03:49:03;;;;;;;;;;;;;;;18.89;100.00;99445.31;5036291;28;19925;-43
2022/10/31 03:51:28;;;;;;;;;;;;;;;18.83;100.00;99437.81;5037034;28;19917;-43
2022/10/31 03:53:56;;;;;;;;;;;;;;;18.41;100.00;99455.03;5037681;28;19933;-43
2022/10/31 03:56:42;;;;;;;;;;;;;;;18.05;100.00;99463.97;5038456;28;19917;-43
2022/10/31 03:59:07;;;;;;;;;;;;;;;18.03;100.00;99466.66;5032356;28;19927;-43
2022/10/31 04:01:32;;;;;;;;;;;;;;;18.76;100.00;99459.03;5038009;28;19916;-44
2022/10/31 04:03:58;;;;;;;;;;;;;;;18.28;100.00;99458.31;5038007;28;19960;-43
2022/10/31 04:06:23;;;;;;;;;;;;;;;18.05;100.00;99463.97;5039715;28;19978;-43
2022/10/31 04:08:49;;;;;;;;;;;;;;;18.37;100.00;99460.38;5038858;28;19956;-43
2022/10/31 04:11:15;;;;;;;;;;;;;;;18.02;100.00;99461.50;5039759;28;20298;-42
2022/10/31 04:13:40;;;;;;;;;;;;;;;17.97;100.00;99462.63;5039411;28;19921;-43
2022/10/31 04:16:05;;;;;;;;;;;;;;;17.52;100.00;99461.56;5039612;28;20370;-43
2022/10/31 04:18:31;;;;;;;;;;;;;;;17.29;100.00;99464.53;5037181;28;20749;-42
2022/10/31 04:21:03;;;;;;;;;;;;;;;17.44;100.00;99463.72;5041115;28;19982;-42
2022/10/31 04:23:28;;;;;;;;;;;;;;;17.69;100.00;99468.47;5039124;28;20321;-43
2022/10/31 04:25:53;;;;;;;;;;;;;;;18.03;100.00;99455.41;5041379;28;20008;-43
2022/10/31 04:28:19;;;;;;;;;;;;;;;17.96;100.00;99450.50;5041690;28;19921;-43
2022/10/31 04:30:44;;;;;;;;;;;;;;;18.15;100.00;99450.34;5040368;28;19925;-43
2022/10/31 04:33:09;;;;;;;;;;;;;;;17.59;100.00;99456.03;5040405;28;19925;-43
2022/10/31 04:35:34;;;;;;;;;;;;;;;17.42;100.00;99459.50;5040778;28;20014;-43
2022/10/31 04:38:00;;;;;;;;;;;;;;;17.49;100.00;99455.66;5040055;28;19917;-42
2022/10/31 04:40:25;;;;;;;;;;;;;;;17.42;100.00;99449.94;5040330;28;19924;-43
2022/10/31 04:42:50;;;;;;;;;;;;;;;17.64;100.00;99447.03;5039167;28;19923;-43
2022/10/31 04:45:15;;;;;;;;;;;;;;;18.21;100.00;99432.69;5039890;28;19920;-43
2022/10/31 04:47:40;;;;;;;;;;;;;;;18.42;100.00;99435.81;5038521;28;19932;-43
2022/10/31 04:50:06;;;;;;;;;;;;;;;18.64;100.00;99427.59;5040776;28;20389;-43
2022/10/31 04:52:31;;;;;;;;;;;;;;;18.26;100.00;99433.25;5054300;28;20364;-43
2022/10/31 04:54:56;;;;;;;;;;;;;;;17.45;100.00;99436.78;5040929;28;19943;-43
2022/10/31 04:57:21;;;;;;;;;;;;;;;17.42;100.00;99447.34;5040438;28;20419;-43
2022/10/31 04:59:47;;;;;;;;;;;;;;;17.31;100.00;99449.66;5039910;28;19925;-43
2022/10/31 05:02:12;;;;;;;;;;;;;;;17.70;100.00;99443.28;5054091;28;19927;-42
2022/10/31 05:04:37;;;;;;;;;;;;;;;17.80;100.00;99447.03;5041238;28;19921;-43
2022/10/31 05:07:02;;;;;;;;;;;;;;;18.21;100.00;99436.13;5040582;28;19932;-42
2022/10/31 05:09:27;;;;;;;;;;;;;;;17.69;100.00;99441.56;5036937;28;19920;-42
2022/10/31 05:11:53;;;;;;;;;;;;;;;17.47;100.00;99442.75;5034683;28;19921;-42
2022/10/31 05:14:18;;;;;;;;;;;;;;;17.40;100.00;99436.16;5038486;28;19921;-43
2022/10/31 05:16:43;;;;;;;;;;;;;;;17.56;100.00;99437.03;5034417;28;19924;-42
2022/10/31 05:19:08;;;;;;;;;;;;;;;18.34;100.00;99413.63;5037986;28;19954;-43
2022/10/31 05:21:34;;;;;;;;;;;;;;;17.65;100.00;99412.28;5040505;28;19925;-43
2022/10/31 05:23:59;;;;;;;;;;;;;;;17.87;100.00;99413.72;5037391;28;19920;-42
2022/10/31 05:26:24;;;;;;;;;;;;;;;18.00;100.00;99424.31;5040861;28;20377;-43
2022/10/31 05:28:49;;;;;;;;;;;;;;;18.47;100.00;99407.72;5039076;28;20393;-43
2022/10/31 05:31:14;;;;;;;;;;;;;;;17.98;100.00;99419.16;5038674;28;19957;-42
2022/10/31 05:33:40;;;;;;;;;;;;;;;17.59;100.00;99425.63;5041361;28;20025;-43
2022/10/31 05:36:05;;;;;;;;;;;;;;;16.81;100.00;99429.69;5040778;28;19928;-43
2022/10/31 05:38:30;;;;;;;;;;;;;;;16.99;100.00;99433.97;5041121;28;19916;-42
2022/10/31 05:41:00;;;;;;;;;;;;;;;16.59;100.00;99429.91;5038483;28;19929;-42
2022/10/31 05:43:26;;;;;;;;;;;;;;;17.31;100.00;99421.03;5040841;28;20640;-42
2022/10/31 05:45:52;;;;;;;;;;;;;;;17.66;100.00;99426.13;5036747;28;19920;-42
2022/10/31 05:48:17;;;;;;;;;;;;;;;17.97;100.00;99423.53;5039212;28;20270;-42
2022/10/31 05:50:42;;;;;;;;;;;;;;;17.62;100.00;99420.22;5038711;28;19920;-43
2022/10/31 05:53:07;;;;;;;;;;;;;;;17.68;100.00;99414.69;5040875;28;19939;-43
2022/10/31 05:55:32;;;;;;;;;;;;;;;17.63;100.00;99415.84;5040163;28;19921;-43
2022/10/31 05:57:58;;;;;;;;;;;;;;;17.21;100.00;99412.03;5040641;28;19947;-43
2022/10/31 06:00:23;;;;;;;;;;;;;;;16.54;100.00;99413.72;5038778;28;19925;-42
2022/10/31 06:02:49;;;;;;;;;;;;;;;17.13;100.00;99421.09;5040110;28;20047;-43
2022/10/31 06:05:14;;;;;;;;;;;;;;;16.80;100.00;99420.22;5039176;28;19928;-43
2022/10/31 06:07:39;;;;;;;;;;;;;;;16.95;100.00;99414.25;5040845;28;19923;-43
2022/10/31 06:10:05;;;;;;;;;;;;;;;16.59;100.00;99417.75;5038969;28;19920;-43
2022/10/31 06:12:31;;;;;;;;;;;;;;;15.69;100.00;99430.69;5040846;28;20320;-44
2022/10/31 06:14:56;;;;;;;;;;;;;;;16.15;100.00;99431.19;5036237;28;19917;-43
2022/10/31 06:17:21;;;;;;;;;;;;;;;16.96;100.00;99423.72;5038478;28;19927;-43
2022/10/31 06:19:46;;;;;;;;;;;;;;;18.14;100.00;99411.34;5037162;28;19921;-43
2022/10/31 06:22:12;;;;;;;;;;;;;;;17.40;100.00;99410.13;5038607;28;19931;-43
2022/10/31 06:24:38;;;;;;;;;;;;;;;17.50;100.00;99415.69;5037027;28;19921;-42
2022/10/31 06:27:03;;;;;;;;;;;;;;;17.45;100.00;99418.53;5038463;28;20036;-43
2022/10/31 06:29:28;;;;;;;;;;;;;;;16.76;100.00;99413.47;5037843;28;19960;-42
2022/10/31 06:31:53;;;;;;;;;;;;;;;17.05;100.00;99425.84;5039431;28;20014;-42
2022/10/31 06:34:18;;;;;;;;;;;;;;;17.23;100.00;99433.63;5039632;28;19947;-42
2022/10/31 06:36:45;;;;;;;;;;;;;;;17.81;100.00;99421.81;5039153;28;19975;-42
2022/10/31 06:39:10;;;;;;;;;;;;;;;17.07;100.00;99425.78;5038810;28;19927;-43
2022/10/31 06:41:36;;;;;;;;;;;;;;;16.99;100.00;99426.19;5038576;28;20373;-42
2022/10/31 06:44:01;;;;;;;;;;;;;;;16.85;100.00;99433.81;5038944;28;20380;-42
2022/10/31 06:46:26;;;;;;;;;;;;;;;16.68;100.00;99439.88;5038235;28;20305;-42
2022/10/31 06:48:52;;;;;;;;;;;;;;;17.31;100.00;99436.63;5038313;28;19995;-42
2022/10/31 06:51:17;;;;;;;;;;;;;;;17.43;100.00;99430.81;5038366;28;20004;-42
2022/10/31 06:53:42;;;;;;;;;;;;;;;17.22;100.00;99442.34;5037937;28;19999;-42
2022/10/31 06:56:07;;;;;;;;;;;;;;;18.53;100.00;99428.22;5039782;28;20015;-42
2022/10/31 06:58:32;;;;;;;;;;;;;;;17.73;100.00;99417.03;5038593;28;20007;-42
2022/10/31 07:01:00;;;;;;;;;;;;;;;17.33;100.00;99424.38;5038479;28;20000;-42
2022/10/31 07:03:26;;;;;;;;;;;;;;;16.97;100.00;99438.41;5038311;28;20361;-42
2022/10/31 07:05:51;;;;;;;;;;;;;;;16.96;100.00;99431.53;5038043;28;19925;-42
2022/10/31 07:08:16;;;;;;;;;;;;;;;17.48;100.00;99433.16;5037731;28;20010;-42
2022/10/31 07:10:42;;;;;;;;;;;;;;;17.63;100.00;99441.91;5038466;28;20021;-42
2022/10/31 07:13:11;;;;;;;;;;;;;;;18.14;100.00;99432.19;5038415;28;19964;-42
2022/10/31 07:15:37;;;;;;;;;;;;;;;18.39;100.00;99422.03;5037574;28;19928;-42
2022/10/31 07:18:06;;;;;;;;;;;;;;;18.92;100.00;99413.78;5036859;28;19946;-42
2022/10/31 07:20:31;;;;;;;;;;;;;;;19.10;100.00;99396.19;5038275;28;19920;-42
2022/10/31 07:22:57;;;;;;;;;;;;;;;18.77;100.00;99399.88;5037536;28;19925;-42
2022/10/31 07:25:22;;;;;;;;;;;;;;;18.64;100.00;99410.19;5038255;28;19920;-42
2022/10/31 07:27:48;;;;;;;;;;;;;;;18.12;100.00;99421.00;5039215;28;20428;-42
2022/10/31 07:30:13;;;;;;;;;;;;;;;18.76;100.00;99406.84;5038209;28;20362;-42
2022/10/31 07:32:40;;;;;;;;;;;;;;;18.47;100.00;99411.16;5037048;28;19921;-42
2022/10/31 07:35:06;;;;;;;;;;;;;;;18.78;100.00;99407.63;5038575;28;19920;-42
2022/10/31 07:37:31;;;;;;;;;;;;;;;18.24;100.00;99425.50;5038274;28;20469;-42
2022/10/31 07:39:56;;;;;;;;;;;;;;;17.80;100.00;99431.41;5040494;28;19971;-42
2022/10/31 07:42:22;;;;;;;;;;;;;;;18.75;100.00;99420.81;5042435;28;19979;-42
2022/10/31 07:44:47;;;;;;;;;;;;;;;19.15;100.00;99404.56;5044068;28;19967;-42
2022/10/31 07:47:12;;;;;;;;;;;;;;;19.23;100.00;99403.19;5041156;28;19924;-42
2022/10/31 07:49:37;;;;;;;;;;;;;;;19.17;100.00;99408.75;5042141;28;20285;-42
2022/10/31 07:52:03;;;;;;;;;;;;;;;18.75;100.00;99412.16;5040251;28;20349;-42
2022/10/31 07:54:28;;;;;;;;;;;;;;;18.69;100.00;99417.75;5042952;28;20606;-42
2022/10/31 07:56:53;;;;;;;;;;;;;;;18.88;100.00;99417.50;5041594;28;19959;-42
2022/10/31 07:59:18;;;;;;;;;;;;;;;19.43;100.00;99419.38;5042917;28;19970;-42
2022/10/31 08:01:43;;;;;;;;;;;;;;;19.29;100.00;99412.38;5040570;28;19960;-43
2022/10/31 08:04:09;;;;;;;;;;;;;;;19.53;100.00;99404.81;5043336;28;20729;-42
2022/10/31 08:06:34;;;;;;;;;;;;;;;20.40;100.00;99406.22;5040008;28;19932;-42
2022/10/31 08:08:59;;;;;;;;;;;;;;;20.24;100.00;99397.72;5041478;28;19916;-43
2022/10/31 08:11:24;;;;;;;;;;;;;;;19.35;100.00;99398.13;5043065;28;19913;-42
2022/10/31 08:13:50;;;;;;;;;;;;;;;20.37;100.00;99385.50;5042423;28;19913;-42
2022/10/31 08:16:15;;;;;;;;;;;;;;;18.95;100.00;99404.03;5041545;28;19917;-42
2022/10/31 08:18:40;;;;;;;;;;;;;;;19.01;100.00;99408.00;5040348;28;19925;-42
2022/10/31 08:21:05;;;;;;;;;;;;;;;19.41;100.00;99395.16;5040704;28;19928;-42
2022/10/31 08:23:30;;;;;;;;;;;;;;;18.75;100.00;99405.16;5042352;28;20055;-42
2022/10/31 08:25:57;;;;;;;;;;;;;;;19.24;100.00;99396.16;5041694;28;19924;-42
2022/10/31 08:28:22;;;;;;;;;;;;;;;19.46;100.00;99400.91;5039463;28;20377;-42
2022/10/31 08:30:47;;;;;;;;;;;;;;;18.84;100.00;99400.34;5040851;28;19927;-42
2022/10/31 08:33:16;;;;;;;;;;;;;;;18.94;100.00;99409.31;5041002;28;19925;-42
2022/10/31 08:35:42;;;;;;;;;;;;;;;19.88;100.00;99393.09;5042294;28;19921;-43
2022/10/31 08:38:08;;;;;;;;;;;;;;;19.80;100.00;99385.75;5040740;28;20680;-42
2022/10/31 08:40:34;;;;;;;;;;;;;;;20.43;100.00;99374.63;5041341;28;19928;-42
2022/10/31 08:43:01;;;;;;;;;;;;;;;19.18;100.00;99388.72;5041820;28;19921;-42
2022/10/31 08:45:26;;;;;;;;;;;;;;;19.09;100.00;99397.97;5040618;28;19921;-42
2022/10/31 08:47:51;;;;;;;;;;;;;;;19.22;100.00;99396.25;5041732;28;19989;-42
2022/10/31 08:50:17;;;;;;;;;;;;;;;20.59;100.00;99373.63;5039300;28;19916;-42
2022/10/31 08:52:42;;;;;;;;;;;;;;;21.38;100.00;99366.47;5040552;28;19935;-42
2022/10/31 08:55:07;;;;;;;;;;;;;;;21.66;100.00;99360.94;5042387;28;19919;-43
2022/10/31 08:57:32;;;;;;;;;;;;;;;21.70;100.00;99372.88;5040671;28;19920;-42
2022/10/31 08:59:58;;;;;;;;;;;;;;;22.06;100.00;99357.19;5040541;28;19913;-42
2022/10/31 09:02:23;;;;;;;;;;;;;;;21.46;100.00;99358.91;5040400;28;19920;-42
2022/10/31 09:04:48;;;;;;;;;;;;;;;20.92;100.00;99360.03;5041162;28;19921;-42
2022/10/31 09:07:13;;;;;;;;;;;;;;;20.48;100.00;99363.84;5040308;28;19982;-42
2022/10/31 09:09:39;;;;;;;;;;;;;;;21.37;100.00;99359.53;5041439;28;19921;-43
2022/10/31 09:12:04;;;;;;;;;;;;;;;21.32;100.00;99357.22;5040941;28;19971;-42
2022/10/31 09:14:29;;;;;;;;;;;;;;;22.14;100.00;99345.16;5041414;28;19921;-42
2022/10/31 09:16:54;;;;;;;;;;;;;;;21.40;100.00;99352.31;5041636;28;19917;-42
2022/10/31 09:19:19;;;;;;;;;;;;;;;21.96;100.00;99361.44;5040243;28;19921;-42
2022/10/31 09:21:45;;;;;;;;;;;;;;;22.57;100.00;99350.81;5040612;28;19923;-42
2022/10/31 09:24:10;;;;;;;;;;;;;;;22.50;100.00;99348.63;5042104;28;19958;-43
2022/10/31 09:26:35;;;;;;;;;;;;;;;22.58;100.00;99347.22;5039871;28;19931;-43
2022/10/31 09:29:01;;;;;;;;;;;;;;;22.70;100.00;99356.78;5039854;28;20012;-42
2022/10/31 09:31:27;;;;;;;;;;;;;;;22.88;100.00;99344.03;5040306;28;19919;-42
2022/10/31 09:33:52;;;;;;;;;;;;;;;22.72;100.00;99352.28;5038918;28;19920;-42
2022/10/31 09:36:18;;;;;;;;;;;;;;;22.38;100.00;99357.44;5038934;28;19921;-42
2022/10/31 09:38:43;;;;;;;;;;;;;;;22.32;100.00;99357.91;5041212;28;19916;-42
2022/10/31 09:41:08;;;;;;;;;;;;;;;22.23;100.00;99363.84;5054662;28;19920;-43
2022/10/31 09:43:33;;;;;;;;;;;;;;;23.08;100.00;99348.59;5041891;28;19924;-43
2022/10/31 09:45:59;;;;;;;;;;;;;;;23.57;100.00;99341.25;5039101;28;19929;-43
2022/10/31 09:48:27;;;;;;;;;;;;;;;23.66;100.00;99337.03;5038808;28;20456;-42
2022/10/31 09:50:54;;;;;;;;;;;;;;;24.04;100.00;99335.72;5038817;28;20006;-42
2022/10/31 09:53:22;;;;;;;;;;;;;;;23.57;100.00;99344.69;5040542;28;19924;-43
2022/10/31 09:55:48;;;;;;;;;;;;;;;23.72;100.00;99334.75;5039615;28;19921;-43
2022/10/31 09:58:15;;;;;;;;;;;;;;;23.66;100.00;99332.59;5038679;28;20397;-43
2022/10/31 10:00:41;;;;;;;;;;;;;;;24.29;100.00;99331.88;5038561;28;19917;-43
2022/10/31 10:03:11;;;;;;;;;;;;;;;24.55;100.00;99327.91;5036872;28;20579;-43
2022/10/31 10:05:41;;;;;;;;;;;;;;;24.77;100.00;99326.06;5038770;28;19917;-43
2022/10/31 10:08:12;;;;;;;;;;;;;;;24.90;100.00;99313.50;5030429;28;20043;-43
2022/10/31 10:10:40;;;;;;;;;;;;;;;24.73;100.00;99319.41;5031187;28;19925;-43
2022/10/31 10:13:18;;;;;;;;;;;;;;;25.12;100.00;99309.03;5038669;28;20014;-43
2022/10/31 10:15:55;;;;;;;;;;;;;;;25.33;100.00;99317.69;5038129;28;19966;-43
2022/10/31 10:18:39;;;;;;;;;;;;;;;25.40;100.00;99313.53;5038155;28;19947;-43
2022/10/31 10:21:13;;;;;;;;;;;;;;;22.52;100.00;99338.84;5039307;28;19917;-42
2022/10/31 10:23:59;;;;;;;;;;;;;;;22.31;100.00;99335.25;5038184;28;19963;-43
2022/10/31 10:26:37;;;;;;;;;;;;;;;22.65;100.00;99335.28;5033645;28;19963;-43
2022/10/31 10:29:17;;;;;;;;;;;;;;;22.93;100.00;99326.13;5039210;28;19939;-43
2022/10/31 10:31:42;;;;;;;;;;;;;;;23.17;100.00;99326.00;5037771;28;19920;-43
2022/10/31 10:34:11;;;;;;;;;;;;;;;22.63;100.00;99332.81;5038096;28;19917;-43
2022/10/31 10:36:47;;;;;;;;;;;;;;;22.91;100.00;99328.88;5038353;28;20523;-43
2022/10/31 10:39:15;;;;;;;;;;;;;;;24.21;100.00;99319.38;5037240;28;19921;-43
2022/10/31 10:41:41;;;;;;;;;;;;;;;24.63;100.00;99304.41;5031468;28;20420;-43
2022/10/31 10:44:10;;;;;;;;;;;;;;;24.74;100.00;99300.81;5038222;28;20673;-43
2022/10/31 10:49:35;;;;;;;;;;;;;;;24.81;100.00;99299.34;5037363;28;20393;-43
2022/10/31 10:52:19;;;;;;;;;;;;;;;24.90;100.00;99284.53;5036040;28;20637;-43
2022/10/31 10:54:47;;;;;;;;;;;;;;;24.86;100.00;99283.16;5038497;28;20308;-42
2022/10/31 10:57:17;;;;;;;;;;;;;;;25.00;100.00;99282.78;5037107;28;19921;-43
2022/10/31 10:59:42;;;;;;;;;;;;;;;24.99;100.00;99280.25;5037311;28;20344;-43
2022/10/31 11:02:22;;;;;;;;;;;;;;;24.97;100.00;99279.56;5036880;28;19921;-43
2022/10/31 11:04:49;;;;;;;;;;;;;;;24.69;100.00;99276.69;5039601;28;20381;-43
2022/10/31 11:07:15;;;;;;;;;;;;;;;24.67;100.00;99276.00;5019460;28;20459;-43
2022/10/31 11:09:40;;;;;;;;;;;;;;;24.63;100.00;99271.94;5037410;28;19928;-43
2022/10/31 11:12:07;;;;;;;;;;;;;;;24.72;100.00;99267.69;5035626;28;19920;-43
2022/10/31 11:14:33;;;;;;;;;;;;;;;24.92;100.00;99260.69;5038878;28;19928;-43
2022/10/31 11:17:09;;;;;;;;;;;;;;;24.99;100.00;99252.09;5036831;28;19920;-43
2022/10/31 11:19:35;;;;;;;;;;;;;;;24.52;100.00;99259.72;5038000;28;19921;-43
2022/10/31 11:22:07;;;;;;;;;;;;;;;24.71;100.00;99258.13;5037482;28;19928;-43
2022/10/31 11:24:36;;;;;;;;;;;;;;;24.30;100.00;99259.84;5038090;28;19924;-43
2022/10/31 11:27:27;;;;;;;;;;;;;;;25.32;100.00;99242.22;5036952;28;19943;-43
2022/10/31 11:29:53;;;;;;;;;;;;;;;25.11;100.00;99241.44;5036303;28;19943;-43
2022/10/31 11:32:22;;;;;;;;;;;;;;;24.04;100.00;99233.97;5037606;28;19920;-43
2022/10/31 11:34:50;;;;;;;;;;;;;;;25.44;100.00;99222.66;5037729;28;19923;-42
2022/10/31 11:37:16;;;;;;;;;;;;;;;25.21;100.00;99229.16;5038092;28;20519;-42
2022/10/31 11:39:43;;;;;;;;;;;;;;;25.21;100.00;99229.16;5036148;28;19924;-43
2022/10/31 11:42:08;;;;;;;;;;;;;;;25.45;100.00;99218.19;5036661;28;20027;-42
2022/10/31 11:44:33;;;;;;;;;;;;;;;25.43;100.00;99213.09;5037279;28;19963;-42
2022/10/31 11:47:00;;;;;;;;;;;;;;;25.36;100.00;99201.44;5033090;28;19932;-42
2022/10/31 11:49:29;;;;;;;;;;;;;;;24.62;100.00;99207.91;5036882;28;19928;-43
2022/10/31 11:51:54;;;;;;;;;;;;;;;24.83;100.00;99202.56;5037930;28;19920;-42
2022/10/31 11:54:27;;;;;;;;;;;;;;;25.46;100.00;99191.72;5037422;28;19947;-42
2022/10/31 11:56:53;;;;;;;;;;;;;;;25.86;100.00;99187.19;5038452;28;20415;-42
2022/10/31 11:59:21;;;;;;;;;;;;;;;25.86;100.00;99185.41;5036937;28;19912;-43
2022/10/31 12:01:47;;;;;;;;;;;;;;;26.01;100.00;99177.06;5036020;28;19916;-42
2022/10/31 12:04:12;;;;;;;;;;;;;;;26.49;100.00;99165.47;5038670;28;20329;-42
2022/10/31 12:06:38;;;;;;;;;;;;;;;26.61;100.00;99161.69;5033722;28;20031;-42
2022/10/31 12:09:14;;;;;;;;;;;;;;;26.41;100.00;99160.09;5038886;28;19935;-42
2022/10/31 12:11:39;;;;;;;;;;;;;;;26.87;100.00;99161.00;5035607;28;19931;-43
2022/10/31 12:14:31;;;;;;;;;;;;;;;25.39;100.00;99173.97;5039022;28;20385;-42
2022/10/31 12:17:05;;;;;;;;;;;;;;;25.95;100.00;99160.00;5028360;28;19944;-42
2022/10/31 12:19:34;;;;;;;;;;;;;;;26.54;100.00;99155.31;5037312;28;20875;-42
2022/10/31 12:22:01;;;;;;;;;;;;;;;25.93;100.00;99147.91;5038564;28;20449;-43
2022/10/31 12:24:27;;;;;;;;;;;;;;;25.77;100.00;99146.69;5038740;28;20312;-42
2022/10/31 12:27:11;;;;;;;;;;;;;;;26.60;100.00;99143.34;5038602;28;19925;-42
2022/10/31 12:29:36;;;;;;;;;;;;;;;26.74;100.00;99142.03;5042145;28;20000;-42
2022/10/31 12:32:17;;;;;;;;;;;;;;;26.84;100.00;99140.13;5040904;28;20025;-43
2022/10/31 12:34:55;;;;;;;;;;;;;;;26.54;100.00;99134.16;5040202;28;19913;-42
2022/10/31 12:37:20;;;;;;;;;;;;;;;26.85;100.00;99133.88;5040231;28;19927;-43